首页
METAR-TAF:

METAR-TAF

机场 :

Jefferson County International Airport

湯森港, 华盛顿, 美国

纬度: 48-03-14N, 经度: 122-48-38W, 海拔: 33米

当前天气观测

该预报发布于19分钟前的16:55 UTC
静风
温度 5°C
湿度 87%
气压 1023 hPa
能見度: 16.1公里
阴天层高于6000英尺

METAR: K0S9 121655Z AUTO 00000KT 10SM OVC060 05/03 A3022 RMK AO2

时间: 09:14 (17:14 UTC)


TAF: 丢失

超过4000个机场的气象观测和天气预报(METAR&TAF报告)。

可查询的气象台以黄色和红色小点在地图上表示。

将鼠标移到小点上方,可查看气象台名称。

然后点击查看天气观测和预报。

如需切换地图:点击带黑十字的绿色按钮放大地图;点击带横线的绿色按钮缩小地图;或者点击绿色箭头查看邻近地区的地图。


METAR-TAF: